RYR3EM EPPO-LFOB
Flight info
| Callsign | RYR3EM |
|---|---|
| Flight time | 1h 39m |
| Altitude | 36000 |
| Route | ELSUP Z181 XIGRI DCT POVEL DCT LENDO DCT IDOSA DCT TOLVU/N0454F370 DCT RAPOR DCT VEDUS |
| Aircraft | B738/M-SDE2E3FGHIRWXY/LB1 |
Departure
| Time | 2026-05-07 12:02 |
|---|---|
| Airport | Poznań-Ławica Airport (EPPO) |
Arrival
| Time | 2026-05-07 13:41 |
|---|---|
| Airport | Beauvais-Tillé airport (LFOB) |
| Time | Latitude | Longitude | Altitude | Speed | Heading |
|---|---|---|---|---|---|
| 2026-05-07 11:35 | 52.41578 | 16.82987 | 291 ft | 0 kts | 192° |
| 2026-05-07 11:52 | 52.41586 | 16.82990 | 290 ft | 3 kts | 192° |
| 2026-05-07 11:52 | 52.41606 | 16.82997 | 291 ft | 3 kts | 188° |
| 2026-05-07 11:52 | 52.41626 | 16.83000 | 287 ft | 3 kts | 174° |
| 2026-05-07 11:52 | 52.41642 | 16.82993 | 287 ft | 3 kts | 132° |
| 2026-05-07 11:53 | 52.41646 | 16.82981 | 290 ft | 0 kts | 102° |
| 2026-05-07 11:56 | 52.41641 | 16.83022 | 292 ft | 7 kts | 102° |
| 2026-05-07 11:56 | 52.41627 | 16.83121 | 287 ft | 9 kts | 103° |
| 2026-05-07 11:57 | 52.41613 | 16.83220 | 287 ft | 9 kts | 103° |
| 2026-05-07 11:57 | 52.41600 | 16.83315 | 287 ft | 9 kts | 103° |
| 2026-05-07 11:57 | 52.41586 | 16.83418 | 287 ft | 9 kts | 103° |
| 2026-05-07 11:57 | 52.41572 | 16.83528 | 287 ft | 12 kts | 98° |
| 2026-05-07 11:58 | 52.41565 | 16.83672 | 287 ft | 13 kts | 93° |
| 2026-05-07 11:58 | 52.41561 | 16.83817 | 287 ft | 13 kts | 93° |
| 2026-05-07 11:58 | 52.41592 | 16.83925 | 287 ft | 10 kts | 46° |
| 2026-05-07 11:58 | 52.41649 | 16.83991 | 290 ft | 10 kts | 21° |
| 2026-05-07 11:59 | 52.41712 | 16.84029 | 287 ft | 6 kts | 19° |
| 2026-05-07 11:59 | 52.41713 | 16.84030 | 287 ft | 0 kts | 19° |
| 2026-05-07 12:00 | 52.41750 | 16.84052 | 287 ft | 11 kts | 19° |
| 2026-05-07 12:00 | 52.41822 | 16.84048 | 288 ft | 11 kts | 317° |
| 2026-05-07 12:00 | 52.41838 | 16.83995 | 288 ft | 0 kts | 288° |
| 2026-05-07 12:01 | 52.41841 | 16.83979 | 288 ft | 6 kts | 288° |
| 2026-05-07 12:01 | 52.41916 | 16.83590 | 293 ft | 77 kts | 287° |
| 2026-05-07 12:01 | 52.42158 | 16.82358 | 289 ft | 150 kts | 287° |
| 2026-05-07 12:02 | 52.42513 | 16.80470 | 731 ft | 183 kts | 289° |
| 2026-05-07 12:02 | 52.42886 | 16.78364 | 1630 ft | 202 kts | 288° |
| 2026-05-07 12:02 | 52.43260 | 16.76109 | 2434 ft | 206 kts | 288° |
| 2026-05-07 12:02 | 52.43698 | 16.73787 | 2861 ft | 226 kts | 291° |
| 2026-05-07 12:03 | 52.44224 | 16.71280 | 3426 ft | 237 kts | 290° |
| 2026-05-07 12:03 | 52.44763 | 16.68655 | 3988 ft | 253 kts | 289° |
| 2026-05-07 12:03 | 52.45324 | 16.65856 | 4741 ft | 262 kts | 288° |
| 2026-05-07 12:03 | 52.45878 | 16.63030 | 5598 ft | 266 kts | 287° |
| 2026-05-07 12:04 | 52.46441 | 16.60111 | 6441 ft | 271 kts | 287° |
| 2026-05-07 12:04 | 52.47008 | 16.57138 | 7256 ft | 274 kts | 285° |
| 2026-05-07 12:04 | 52.47577 | 16.54141 | 8134 ft | 277 kts | 285° |
| 2026-05-07 12:04 | 52.48151 | 16.51106 | 8956 ft | 280 kts | 284° |
| 2026-05-07 12:05 | 52.48641 | 16.48006 | 9794 ft | 281 kts | 276° |
| 2026-05-07 12:05 | 52.48860 | 16.44795 | 10462 ft | 289 kts | 272° |
| 2026-05-07 12:05 | 52.49012 | 16.41358 | 10660 ft | 314 kts | 271° |
| 2026-05-07 12:05 | 52.49168 | 16.37657 | 10851 ft | 338 kts | 271° |
| 2026-05-07 12:06 | 52.49352 | 16.33693 | 11088 ft | 357 kts | 272° |
| 2026-05-07 12:06 | 52.49557 | 16.29622 | 11647 ft | 365 kts | 272° |
| 2026-05-07 12:06 | 52.49777 | 16.25463 | 12397 ft | 368 kts | 272° |
| 2026-05-07 12:06 | 52.50003 | 16.21275 | 13181 ft | 370 kts | 273° |
| 2026-05-07 12:07 | 52.50228 | 16.17056 | 13908 ft | 373 kts | 272° |
| 2026-05-07 12:07 | 52.50453 | 16.12794 | 14525 ft | 377 kts | 272° |
| 2026-05-07 12:07 | 52.50679 | 16.08476 | 15107 ft | 382 kts | 272° |
| 2026-05-07 12:07 | 52.50907 | 16.04103 | 15692 ft | 387 kts | 272° |
| 2026-05-07 12:08 | 52.51135 | 15.99682 | 16290 ft | 391 kts | 272° |
| 2026-05-07 12:08 | 52.51363 | 15.95214 | 16885 ft | 395 kts | 272° |
| 2026-05-07 12:08 | 52.51589 | 15.90760 | 17465 ft | 399 kts | 272° |
| 2026-05-07 12:08 | 52.51819 | 15.86196 | 18038 ft | 403 kts | 272° |
| 2026-05-07 12:09 | 52.52049 | 15.81589 | 18572 ft | 407 kts | 272° |
| 2026-05-07 12:09 | 52.52280 | 15.76940 | 19077 ft | 410 kts | 272° |
| 2026-05-07 12:09 | 52.52511 | 15.72256 | 19600 ft | 413 kts | 272° |
| 2026-05-07 12:09 | 52.52742 | 15.67537 | 20104 ft | 416 kts | 272° |
| 2026-05-07 12:10 | 52.52973 | 15.62776 | 20600 ft | 420 kts | 272° |
| 2026-05-07 12:10 | 52.53204 | 15.57974 | 21081 ft | 423 kts | 272° |
| 2026-05-07 12:10 | 52.53436 | 15.53134 | 21563 ft | 427 kts | 272° |
| 2026-05-07 12:10 | 52.53665 | 15.48319 | 22022 ft | 430 kts | 272° |
| 2026-05-07 12:11 | 52.53895 | 15.43413 | 22479 ft | 434 kts | 272° |
| 2026-05-07 12:11 | 52.54044 | 15.38455 | 22931 ft | 436 kts | 268° |
| 2026-05-07 12:11 | 52.53931 | 15.33468 | 23349 ft | 438 kts | 264° |
| 2026-05-07 12:11 | 52.53701 | 15.28457 | 23753 ft | 442 kts | 263° |
| 2026-05-07 12:12 | 52.53454 | 15.23419 | 24148 ft | 443 kts | 263° |
| 2026-05-07 12:12 | 52.53228 | 15.18363 | 24562 ft | 444 kts | 264° |
| 2026-05-07 12:12 | 52.53028 | 15.13290 | 24960 ft | 446 kts | 264° |
| 2026-05-07 12:12 | 52.52845 | 15.08262 | 25320 ft | 448 kts | 264° |
| 2026-05-07 12:13 | 52.52662 | 15.03145 | 25673 ft | 450 kts | 264° |
| 2026-05-07 12:13 | 52.52475 | 14.98007 | 26024 ft | 452 kts | 264° |
| 2026-05-07 12:13 | 52.52285 | 14.92849 | 26365 ft | 453 kts | 264° |
| 2026-05-07 12:13 | 52.52092 | 14.87671 | 26705 ft | 455 kts | 264° |
| 2026-05-07 12:14 | 52.51897 | 14.82472 | 27016 ft | 457 kts | 264° |
| 2026-05-07 12:14 | 52.51699 | 14.77250 | 27327 ft | 459 kts | 264° |
| 2026-05-07 12:14 | 52.51499 | 14.72006 | 27638 ft | 461 kts | 264° |
| 2026-05-07 12:14 | 52.51296 | 14.66750 | 28026 ft | 461 kts | 264° |
| 2026-05-07 12:15 | 52.51089 | 14.61580 | 28488 ft | 459 kts | 263° |
| 2026-05-07 12:15 | 52.50767 | 14.56388 | 28957 ft | 456 kts | 261° |
| 2026-05-07 12:15 | 52.50347 | 14.51245 | 29389 ft | 455 kts | 260° |
| 2026-05-07 12:15 | 52.49884 | 14.46110 | 29788 ft | 455 kts | 259° |
| 2026-05-07 12:16 | 52.49409 | 14.40986 | 30190 ft | 454 kts | 259° |
| 2026-05-07 12:16 | 52.48938 | 14.35874 | 30545 ft | 453 kts | 259° |
| 2026-05-07 12:16 | 52.48475 | 14.30770 | 30881 ft | 452 kts | 259° |
| 2026-05-07 12:16 | 52.48018 | 14.25667 | 31203 ft | 452 kts | 259° |
| 2026-05-07 12:17 | 52.47567 | 14.20570 | 31561 ft | 451 kts | 259° |
| 2026-05-07 12:17 | 52.47118 | 14.15488 | 31929 ft | 450 kts | 259° |
| 2026-05-07 12:17 | 52.46675 | 14.10486 | 32271 ft | 449 kts | 259° |
| 2026-05-07 12:17 | 52.46226 | 14.05428 | 32606 ft | 448 kts | 259° |
| 2026-05-07 12:18 | 52.45776 | 14.00379 | 32934 ft | 447 kts | 259° |
| 2026-05-07 12:18 | 52.45324 | 13.95343 | 33273 ft | 446 kts | 259° |
| 2026-05-07 12:18 | 52.44871 | 13.90321 | 33625 ft | 445 kts | 259° |
| 2026-05-07 12:18 | 52.44417 | 13.85314 | 33946 ft | 444 kts | 259° |
| 2026-05-07 12:19 | 52.43961 | 13.80313 | 34200 ft | 444 kts | 259° |
| 2026-05-07 12:19 | 52.43503 | 13.75313 | 34422 ft | 444 kts | 259° |
| 2026-05-07 12:19 | 52.43049 | 13.70375 | 34626 ft | 444 kts | 259° |
| 2026-05-07 12:19 | 52.42585 | 13.65369 | 34855 ft | 444 kts | 259° |
| 2026-05-07 12:20 | 52.42121 | 13.60367 | 35080 ft | 444 kts | 259° |
| 2026-05-07 12:20 | 52.41654 | 13.55365 | 35298 ft | 444 kts | 259° |
| 2026-05-07 12:20 | 52.41185 | 13.50372 | 35517 ft | 444 kts | 259° |
| 2026-05-07 12:20 | 52.40714 | 13.45372 | 35708 ft | 445 kts | 259° |
| 2026-05-07 12:21 | 52.40240 | 13.40367 | 35909 ft | 445 kts | 259° |
| 2026-05-07 12:21 | 52.39764 | 13.35362 | 36047 ft | 446 kts | 259° |
| 2026-05-07 12:21 | 52.39282 | 13.30329 | 36036 ft | 448 kts | 259° |
| 2026-05-07 12:22 | 52.38322 | 13.20341 | 36039 ft | 446 kts | 259° |
| 2026-05-07 12:22 | 52.37353 | 13.10363 | 36034 ft | 443 kts | 259° |
| 2026-05-07 12:23 | 52.36380 | 13.00435 | 36030 ft | 441 kts | 259° |
| 2026-05-07 12:23 | 52.35402 | 12.90544 | 36022 ft | 440 kts | 259° |
| 2026-05-07 12:24 | 52.34423 | 12.80730 | 36028 ft | 440 kts | 259° |
| 2026-05-07 12:24 | 52.33426 | 12.70835 | 36036 ft | 442 kts | 259° |
| 2026-05-07 12:25 | 52.32418 | 12.60906 | 36039 ft | 444 kts | 259° |
| 2026-05-07 12:25 | 52.31398 | 12.50944 | 36035 ft | 446 kts | 259° |
| 2026-05-07 12:26 | 52.30362 | 12.40916 | 36039 ft | 448 kts | 259° |
| 2026-05-07 12:26 | 52.29322 | 12.30935 | 36034 ft | 450 kts | 259° |
| 2026-05-07 12:27 | 52.28263 | 12.20854 | 36034 ft | 451 kts | 259° |
| 2026-05-07 12:27 | 52.27193 | 12.10757 | 36038 ft | 452 kts | 259° |
| 2026-05-07 12:28 | 52.26113 | 12.00653 | 36038 ft | 452 kts | 259° |
| 2026-05-07 12:28 | 52.25033 | 11.90630 | 36034 ft | 451 kts | 259° |
| 2026-05-07 12:29 | 52.23937 | 11.80552 | 36036 ft | 451 kts | 259° |
| 2026-05-07 12:29 | 52.22836 | 11.70505 | 36033 ft | 450 kts | 259° |
| 2026-05-07 12:30 | 52.21728 | 11.60478 | 36035 ft | 449 kts | 259° |
| 2026-05-07 12:30 | 52.20803 | 11.52167 | 36042 ft | 448 kts | 259° |
| 2026-05-07 12:31 | 52.19502 | 11.40570 | 36044 ft | 447 kts | 258° |
| 2026-05-07 12:31 | 52.18374 | 11.30607 | 36036 ft | 447 kts | 258° |
| 2026-05-07 12:32 | 52.17238 | 11.20655 | 36044 ft | 447 kts | 258° |
| 2026-05-07 12:32 | 52.16288 | 11.12385 | 36045 ft | 447 kts | 258° |
| 2026-05-07 12:33 | 52.14372 | 10.95858 | 36046 ft | 447 kts | 258° |
| 2026-05-07 12:33 | 52.13201 | 10.85916 | 36043 ft | 447 kts | 257° |
| 2026-05-07 12:34 | 52.11528 | 10.77999 | 36044 ft | 446 kts | 244° |
| 2026-05-07 12:34 | 52.08765 | 10.68963 | 36040 ft | 446 kts | 243° |
| 2026-05-07 12:35 | 52.05511 | 10.58487 | 36042 ft | 447 kts | 243° |
| 2026-05-07 12:35 | 52.03202 | 10.50980 | 36042 ft | 447 kts | 243° |
| 2026-05-07 12:36 | 52.00435 | 10.41942 | 36046 ft | 447 kts | 243° |
| 2026-05-07 12:36 | 51.97667 | 10.32906 | 36043 ft | 448 kts | 243° |
| 2026-05-07 12:37 | 51.94889 | 10.23870 | 36041 ft | 447 kts | 243° |
| 2026-05-07 12:37 | 51.92106 | 10.14855 | 36049 ft | 447 kts | 243° |
| 2026-05-07 12:38 | 51.89334 | 10.05909 | 36041 ft | 447 kts | 243° |
| 2026-05-07 12:38 | 51.86539 | 9.96925 | 36042 ft | 447 kts | 243° |
| 2026-05-07 12:39 | 51.83740 | 9.87961 | 36042 ft | 446 kts | 243° |
| 2026-05-07 12:39 | 51.80939 | 9.79021 | 36044 ft | 446 kts | 243° |
| 2026-05-07 12:40 | 51.78128 | 9.70085 | 36038 ft | 446 kts | 243° |
| 2026-05-07 12:40 | 51.75327 | 9.61213 | 36038 ft | 446 kts | 243° |
| 2026-05-07 12:41 | 51.72509 | 9.52318 | 36044 ft | 446 kts | 243° |
| 2026-05-07 12:41 | 51.69679 | 9.43417 | 36035 ft | 446 kts | 243° |
| 2026-05-07 12:42 | 51.66842 | 9.34525 | 36028 ft | 446 kts | 243° |
| 2026-05-07 12:42 | 51.64017 | 9.25707 | 36028 ft | 446 kts | 243° |
| 2026-05-07 12:43 | 51.61167 | 9.16841 | 36028 ft | 446 kts | 243° |
| 2026-05-07 12:43 | 51.58311 | 9.07987 | 36038 ft | 446 kts | 243° |
| 2026-05-07 12:44 | 51.55444 | 8.99132 | 36040 ft | 447 kts | 242° |
| 2026-05-07 12:44 | 51.52571 | 8.90289 | 36047 ft | 446 kts | 242° |
| 2026-05-07 12:45 | 51.49711 | 8.81517 | 36044 ft | 446 kts | 242° |
| 2026-05-07 12:45 | 51.46829 | 8.72708 | 36049 ft | 446 kts | 242° |
| 2026-05-07 12:46 | 51.43939 | 8.63907 | 36048 ft | 446 kts | 242° |
| 2026-05-07 12:46 | 51.41046 | 8.55128 | 36046 ft | 445 kts | 242° |
| 2026-05-07 12:47 | 51.38168 | 8.46425 | 36049 ft | 445 kts | 242° |
| 2026-05-07 12:47 | 51.35264 | 8.37677 | 36043 ft | 445 kts | 242° |
| 2026-05-07 12:48 | 51.32355 | 8.28941 | 36048 ft | 445 kts | 242° |
| 2026-05-07 12:48 | 51.29440 | 8.20219 | 36041 ft | 445 kts | 242° |
| 2026-05-07 12:49 | 51.26523 | 8.11520 | 36044 ft | 445 kts | 242° |
| 2026-05-07 12:49 | 51.23616 | 8.02882 | 36044 ft | 445 kts | 242° |
| 2026-05-07 12:50 | 51.20683 | 7.94196 | 36043 ft | 445 kts | 242° |
| 2026-05-07 12:50 | 51.17742 | 7.85519 | 36042 ft | 445 kts | 242° |
| 2026-05-07 12:51 | 51.14794 | 7.76848 | 36043 ft | 445 kts | 242° |
| 2026-05-07 12:51 | 51.11839 | 7.68187 | 36038 ft | 445 kts | 242° |
| 2026-05-07 12:52 | 51.08897 | 7.59595 | 36040 ft | 445 kts | 242° |
| 2026-05-07 12:52 | 51.05929 | 7.50955 | 36041 ft | 445 kts | 242° |
| 2026-05-07 12:53 | 51.02957 | 7.42334 | 36042 ft | 445 kts | 242° |
| 2026-05-07 12:53 | 50.99972 | 7.33706 | 36044 ft | 445 kts | 242° |
| 2026-05-07 12:54 | 50.97002 | 7.25149 | 36047 ft | 446 kts | 242° |
| 2026-05-07 12:54 | 50.94005 | 7.16544 | 36047 ft | 446 kts | 242° |
| 2026-05-07 12:55 | 50.91002 | 7.07951 | 36047 ft | 446 kts | 242° |
| 2026-05-07 12:55 | 50.87993 | 6.99369 | 36047 ft | 445 kts | 241° |
| 2026-05-07 12:56 | 50.84982 | 6.90809 | 36044 ft | 446 kts | 241° |
| 2026-05-07 12:56 | 50.81980 | 6.82306 | 36047 ft | 445 kts | 241° |
| 2026-05-07 12:57 | 50.78954 | 6.73762 | 36045 ft | 445 kts | 241° |
| 2026-05-07 12:57 | 50.75924 | 6.65233 | 36048 ft | 445 kts | 241° |
| 2026-05-07 12:58 | 50.72888 | 6.56718 | 36050 ft | 445 kts | 241° |
| 2026-05-07 12:58 | 50.69869 | 6.48276 | 36044 ft | 445 kts | 241° |
| 2026-05-07 12:59 | 50.66826 | 6.39792 | 36040 ft | 444 kts | 241° |
| 2026-05-07 12:59 | 50.63586 | 6.31520 | 36017 ft | 445 kts | 229° |
| 2026-05-07 13:00 | 50.61292 | 6.28266 | 36043 ft | 445 kts | 216° |
| 2026-05-07 13:00 | 50.58595 | 6.25873 | 36025 ft | 447 kts | 202° |
| 2026-05-07 13:00 | 50.52650 | 6.23017 | 36033 ft | 448 kts | 197° |
| 2026-05-07 13:01 | 50.46688 | 6.20362 | 36025 ft | 448 kts | 197° |
| 2026-05-07 13:01 | 50.40695 | 6.17623 | 36029 ft | 449 kts | 198° |
| 2026-05-07 13:02 | 50.34704 | 6.14837 | 36041 ft | 449 kts | 198° |
| 2026-05-07 13:02 | 50.28705 | 6.12040 | 36028 ft | 450 kts | 198° |
| 2026-05-07 13:03 | 50.22746 | 6.09269 | 36031 ft | 450 kts | 198° |
| 2026-05-07 13:03 | 50.16732 | 6.06483 | 36047 ft | 451 kts | 198° |
| 2026-05-07 13:04 | 50.10708 | 6.03701 | 36036 ft | 452 kts | 198° |
| 2026-05-07 13:04 | 50.04681 | 6.00924 | 36037 ft | 452 kts | 198° |
| 2026-05-07 13:05 | 49.98655 | 5.98154 | 36045 ft | 451 kts | 198° |
| 2026-05-07 13:05 | 49.92644 | 5.95398 | 35537 ft | 458 kts | 198° |
| 2026-05-07 13:06 | 49.89599 | 5.94005 | 34981 ft | 456 kts | 198° |
| 2026-05-07 13:06 | 49.86555 | 5.92614 | 34374 ft | 456 kts | 198° |
| 2026-05-07 13:06 | 49.83512 | 5.91225 | 33686 ft | 456 kts | 198° |
| 2026-05-07 13:06 | 49.80467 | 5.89838 | 32960 ft | 456 kts | 198° |
| 2026-05-07 13:07 | 49.77489 | 5.88208 | 32262 ft | 453 kts | 210° |
| 2026-05-07 13:07 | 49.74969 | 5.85375 | 31645 ft | 447 kts | 226° |
| 2026-05-07 13:07 | 49.73042 | 5.81662 | 31164 ft | 439 kts | 240° |
| 2026-05-07 13:07 | 49.71784 | 5.77419 | 30698 ft | 432 kts | 250° |
| 2026-05-07 13:08 | 49.70794 | 5.73124 | 30225 ft | 428 kts | 251° |
| 2026-05-07 13:08 | 49.69842 | 5.68788 | 29715 ft | 423 kts | 252° |
| 2026-05-07 13:08 | 49.68899 | 5.64515 | 29242 ft | 417 kts | 251° |
| 2026-05-07 13:08 | 49.67950 | 5.60313 | 28796 ft | 412 kts | 251° |
| 2026-05-07 13:09 | 49.66997 | 5.56178 | 28337 ft | 406 kts | 250° |
| 2026-05-07 13:09 | 49.66045 | 5.52102 | 27888 ft | 401 kts | 250° |
| 2026-05-07 13:09 | 49.65099 | 5.48078 | 27437 ft | 397 kts | 250° |
| 2026-05-07 13:09 | 49.64163 | 5.44099 | 26993 ft | 392 kts | 250° |
| 2026-05-07 13:10 | 49.63246 | 5.40214 | 26550 ft | 389 kts | 250° |
| 2026-05-07 13:10 | 49.62328 | 5.36312 | 26111 ft | 385 kts | 251° |
| 2026-05-07 13:10 | 49.61483 | 5.32420 | 25679 ft | 382 kts | 252° |
| 2026-05-07 13:10 | 49.60669 | 5.28538 | 25253 ft | 379 kts | 252° |
| 2026-05-07 13:11 | 49.59859 | 5.24689 | 24822 ft | 376 kts | 252° |
| 2026-05-07 13:11 | 49.59269 | 5.20780 | 24399 ft | 374 kts | 261° |
| 2026-05-07 13:11 | 49.59101 | 5.16799 | 23987 ft | 372 kts | 269° |
| 2026-05-07 13:11 | 49.59141 | 5.12819 | 23567 ft | 371 kts | 270° |
| 2026-05-07 13:12 | 49.59201 | 5.08852 | 23074 ft | 371 kts | 270° |
| 2026-05-07 13:12 | 49.59258 | 5.04835 | 22630 ft | 379 kts | 270° |
| 2026-05-07 13:12 | 49.59305 | 5.00798 | 22181 ft | 382 kts | 270° |
| 2026-05-07 13:12 | 49.59344 | 4.96723 | 21749 ft | 378 kts | 270° |
| 2026-05-07 13:13 | 49.59376 | 4.92694 | 21304 ft | 374 kts | 270° |
| 2026-05-07 13:13 | 49.59405 | 4.88706 | 20880 ft | 370 kts | 270° |
| 2026-05-07 13:13 | 49.59432 | 4.84758 | 20451 ft | 367 kts | 270° |
| 2026-05-07 13:13 | 49.59456 | 4.80846 | 20032 ft | 363 kts | 270° |
| 2026-05-07 13:14 | 49.59479 | 4.76969 | 19622 ft | 360 kts | 270° |
| 2026-05-07 13:14 | 49.59500 | 4.73121 | 19200 ft | 358 kts | 270° |
| 2026-05-07 13:14 | 49.59519 | 4.69347 | 18791 ft | 356 kts | 270° |
| 2026-05-07 13:14 | 49.59537 | 4.65545 | 18385 ft | 354 kts | 270° |
| 2026-05-07 13:15 | 49.59554 | 4.61766 | 17932 ft | 351 kts | 270° |
| 2026-05-07 13:15 | 49.59569 | 4.58012 | 17495 ft | 349 kts | 270° |
| 2026-05-07 13:15 | 49.59584 | 4.54287 | 17087 ft | 346 kts | 270° |
| 2026-05-07 13:15 | 49.59597 | 4.50597 | 16690 ft | 343 kts | 270° |
| 2026-05-07 13:16 | 49.59609 | 4.46943 | 16290 ft | 340 kts | 270° |
| 2026-05-07 13:16 | 49.59620 | 4.43306 | 15905 ft | 338 kts | 270° |
| 2026-05-07 13:16 | 49.59630 | 4.39690 | 15511 ft | 336 kts | 270° |
| 2026-05-07 13:16 | 49.59638 | 4.36097 | 15126 ft | 334 kts | 270° |
| 2026-05-07 13:17 | 49.59645 | 4.32572 | 14743 ft | 332 kts | 270° |
| 2026-05-07 13:17 | 49.59651 | 4.29021 | 14363 ft | 330 kts | 270° |
| 2026-05-07 13:17 | 49.59656 | 4.25490 | 13980 ft | 329 kts | 270° |
| 2026-05-07 13:17 | 49.59661 | 4.21981 | 13657 ft | 325 kts | 270° |
| 2026-05-07 13:18 | 49.59664 | 4.18557 | 13513 ft | 315 kts | 270° |
| 2026-05-07 13:18 | 49.59667 | 4.15228 | 13357 ft | 306 kts | 269° |
| 2026-05-07 13:18 | 49.59668 | 4.11993 | 13227 ft | 298 kts | 269° |
| 2026-05-07 13:18 | 49.59667 | 4.08892 | 13104 ft | 289 kts | 269° |
| 2026-05-07 13:19 | 49.59667 | 4.05834 | 12933 ft | 283 kts | 269° |
| 2026-05-07 13:19 | 49.59666 | 4.02796 | 12711 ft | 284 kts | 269° |
| 2026-05-07 13:19 | 49.59664 | 3.99723 | 12497 ft | 290 kts | 269° |
| 2026-05-07 13:19 | 49.59661 | 3.96591 | 12253 ft | 294 kts | 269° |
| 2026-05-07 13:20 | 49.59657 | 3.93435 | 12010 ft | 295 kts | 269° |
| 2026-05-07 13:20 | 49.59654 | 3.90271 | 11765 ft | 296 kts | 269° |
| 2026-05-07 13:20 | 49.59649 | 3.87098 | 11521 ft | 296 kts | 269° |
| 2026-05-07 13:20 | 49.59644 | 3.83985 | 11276 ft | 293 kts | 269° |
| 2026-05-07 13:21 | 49.59638 | 3.80871 | 11032 ft | 288 kts | 269° |
| 2026-05-07 13:21 | 49.59631 | 3.77800 | 10800 ft | 285 kts | 269° |
| 2026-05-07 13:21 | 49.59623 | 3.74751 | 10572 ft | 284 kts | 269° |
| 2026-05-07 13:21 | 49.59615 | 3.71710 | 10337 ft | 283 kts | 269° |
| 2026-05-07 13:22 | 49.59606 | 3.68701 | 10106 ft | 279 kts | 269° |
| 2026-05-07 13:22 | 49.59597 | 3.65726 | 9865 ft | 276 kts | 269° |
| 2026-05-07 13:22 | 49.59587 | 3.62788 | 9617 ft | 272 kts | 269° |
| 2026-05-07 13:22 | 49.59576 | 3.59891 | 9382 ft | 269 kts | 269° |
| 2026-05-07 13:23 | 49.59564 | 3.57053 | 9163 ft | 268 kts | 269° |
| 2026-05-07 13:23 | 49.59482 | 3.54192 | 8982 ft | 267 kts | 261° |
| 2026-05-07 13:23 | 49.59117 | 3.51407 | 8852 ft | 264 kts | 256° |
| 2026-05-07 13:23 | 49.58670 | 3.48669 | 8712 ft | 262 kts | 255° |
| 2026-05-07 13:24 | 49.58218 | 3.45953 | 8579 ft | 263 kts | 255° |
| 2026-05-07 13:24 | 49.57769 | 3.43219 | 8441 ft | 264 kts | 256° |
| 2026-05-07 13:24 | 49.57323 | 3.40461 | 8306 ft | 267 kts | 256° |
| 2026-05-07 13:24 | 49.56880 | 3.37679 | 8174 ft | 268 kts | 256° |
| 2026-05-07 13:25 | 49.56439 | 3.34891 | 8015 ft | 268 kts | 256° |
| 2026-05-07 13:25 | 49.56001 | 3.32102 | 7884 ft | 268 kts | 256° |
| 2026-05-07 13:25 | 49.55568 | 3.29343 | 7741 ft | 269 kts | 256° |
| 2026-05-07 13:25 | 49.55130 | 3.26543 | 7595 ft | 269 kts | 256° |
| 2026-05-07 13:26 | 49.54691 | 3.23743 | 7463 ft | 268 kts | 256° |
| 2026-05-07 13:26 | 49.54257 | 3.20970 | 7309 ft | 265 kts | 256° |
| 2026-05-07 13:26 | 49.53829 | 3.18237 | 7170 ft | 261 kts | 256° |
| 2026-05-07 13:26 | 49.53404 | 3.15529 | 7041 ft | 260 kts | 256° |
| 2026-05-07 13:27 | 49.52979 | 3.12822 | 6899 ft | 260 kts | 256° |
| 2026-05-07 13:27 | 49.52553 | 3.10119 | 6771 ft | 260 kts | 256° |
| 2026-05-07 13:27 | 49.52132 | 3.07457 | 6629 ft | 260 kts | 256° |
| 2026-05-07 13:27 | 49.51705 | 3.04757 | 6498 ft | 260 kts | 256° |
| 2026-05-07 13:28 | 49.51496 | 3.02002 | 6337 ft | 260 kts | 273° |
| 2026-05-07 13:28 | 49.51683 | 2.99241 | 6213 ft | 260 kts | 276° |
| 2026-05-07 13:28 | 49.51903 | 2.96479 | 6071 ft | 260 kts | 276° |
| 2026-05-07 13:28 | 49.52058 | 2.94519 | 5971 ft | 260 kts | 276° |
| 2026-05-07 13:31 | 49.52249 | 2.92060 | 5841 ft | 260 kts | 276° |
| 2026-05-07 13:32 | 49.52458 | 2.89292 | 5705 ft | 260 kts | 276° |
| 2026-05-07 13:32 | 49.52659 | 2.86562 | 5570 ft | 260 kts | 276° |
| 2026-05-07 13:32 | 49.52859 | 2.83792 | 5389 ft | 261 kts | 276° |
| 2026-05-07 13:32 | 49.53056 | 2.81023 | 5231 ft | 259 kts | 276° |
| 2026-05-07 13:33 | 49.53250 | 2.78285 | 5081 ft | 255 kts | 276° |
| 2026-05-07 13:33 | 49.53440 | 2.75583 | 4950 ft | 253 kts | 276° |
| 2026-05-07 13:33 | 49.53628 | 2.72885 | 4807 ft | 253 kts | 276° |
| 2026-05-07 13:33 | 49.53812 | 2.70226 | 4684 ft | 253 kts | 276° |
| 2026-05-07 13:34 | 49.54000 | 2.67492 | 4533 ft | 253 kts | 276° |
| 2026-05-07 13:34 | 49.54369 | 2.62143 | 4271 ft | 253 kts | 276° |
| 2026-05-07 13:34 | 49.54554 | 2.59453 | 4142 ft | 253 kts | 276° |
| 2026-05-07 13:35 | 49.54737 | 2.56759 | 4028 ft | 253 kts | 276° |
| 2026-05-07 13:35 | 49.54593 | 2.54104 | 3968 ft | 250 kts | 246° |
| 2026-05-07 13:35 | 49.53583 | 2.52026 | 3992 ft | 238 kts | 226° |
| 2026-05-07 13:35 | 49.52466 | 2.50232 | 3969 ft | 227 kts | 226° |
| 2026-05-07 13:36 | 49.51396 | 2.48506 | 3975 ft | 221 kts | 226° |
| 2026-05-07 13:36 | 49.50341 | 2.46787 | 3986 ft | 222 kts | 227° |
| 2026-05-07 13:36 | 49.49290 | 2.45057 | 4002 ft | 227 kts | 227° |
| 2026-05-07 13:36 | 49.48209 | 2.43267 | 3993 ft | 229 kts | 227° |
| 2026-05-07 13:37 | 49.47131 | 2.41473 | 3987 ft | 228 kts | 227° |
| 2026-05-07 13:37 | 49.46059 | 2.39683 | 3984 ft | 227 kts | 227° |
| 2026-05-07 13:37 | 49.44990 | 2.37896 | 3941 ft | 228 kts | 227° |
| 2026-05-07 13:37 | 49.43908 | 2.36084 | 3788 ft | 232 kts | 227° |
| 2026-05-07 13:38 | 49.42819 | 2.34260 | 3578 ft | 231 kts | 227° |
| 2026-05-07 13:38 | 49.41736 | 2.32448 | 3332 ft | 230 kts | 227° |
| 2026-05-07 13:38 | 49.40654 | 2.30639 | 3063 ft | 230 kts | 227° |
| 2026-05-07 13:38 | 49.39663 | 2.28753 | 2666 ft | 230 kts | 245° |
| 2026-05-07 13:39 | 49.39485 | 2.26394 | 2385 ft | 222 kts | 283° |
| 2026-05-07 13:39 | 49.39897 | 2.24463 | 2141 ft | 212 kts | 296° |
| 2026-05-07 13:39 | 49.40574 | 2.22550 | 1869 ft | 196 kts | 302° |
| 2026-05-07 13:39 | 49.41294 | 2.20861 | 1597 ft | 182 kts | 304° |
| 2026-05-07 13:40 | 49.41976 | 2.19296 | 1360 ft | 171 kts | 304° |
| 2026-05-07 13:40 | 49.42597 | 2.17854 | 1111 ft | 156 kts | 303° |
| 2026-05-07 13:40 | 49.43161 | 2.16492 | 811 ft | 145 kts | 303° |
| 2026-05-07 13:40 | 49.43707 | 2.15219 | 660 ft | 143 kts | 305° |
| 2026-05-07 13:41 | 49.44258 | 2.13974 | 446 ft | 141 kts | 304° |
| 2026-05-07 13:41 | 49.44802 | 2.12743 | 319 ft | 133 kts | 304° |
| 2026-05-07 13:41 | 49.45258 | 2.11705 | 332 ft | 95 kts | 304° |
| 2026-05-07 13:41 | 49.45499 | 2.11152 | 346 ft | 44 kts | 303° |
| 2026-05-07 13:42 | 49.45593 | 2.10936 | 350 ft | 15 kts | 304° |
| 2026-05-07 13:42 | 49.45667 | 2.10892 | 357 ft | 12 kts | 27° |
| 2026-05-07 13:42 | 49.45741 | 2.10951 | 350 ft | 12 kts | 28° |
| 2026-05-07 13:42 | 49.45790 | 2.10995 | 355 ft | 2 kts | 51° |
| 2026-05-07 13:43 | 49.45790 | 2.11026 | 349 ft | 5 kts | 103° |
| 2026-05-07 13:43 | 49.45766 | 2.11092 | 351 ft | 9 kts | 121° |
| 2026-05-07 13:43 | 49.45731 | 2.11174 | 350 ft | 10 kts | 125° |
| 2026-05-07 13:43 | 49.45699 | 2.11271 | 350 ft | 10 kts | 91° |
| 2026-05-07 13:44 | 49.45728 | 2.11346 | 354 ft | 7 kts | 45° |
| 2026-05-07 13:44 | 49.45764 | 2.11394 | 345 ft | 7 kts | 40° |
| 2026-05-07 13:44 | 49.45797 | 2.11436 | 346 ft | 0 kts | 40° |
| 2026-05-07 13:44 | 49.45819 | 2.11432 | 346 ft | 7 kts | 330° |
| 2026-05-07 13:45 | 49.45841 | 2.11397 | 349 ft | 2 kts | 312° |
| 2026-05-07 13:45 | 49.45850 | 2.11381 | 351 ft | 2 kts | 311° |
| 2026-05-07 13:45 | 49.45854 | 2.11374 | 352 ft | 0 kts | 311° |